Time;durP1;ratioP1;P1;durP2;ratioP2;P2;SDS_P1;SDS_P2;PMS_P1;PMS_P2;Temp;Humidity;BMP_temperature;BMP_pressure;BME280_temperature;BME280_humidity;BME280_pressure;Samples;Min_cycle;Max_cycle;Signal;HPM_P1;HPM_P2
2023/02/19 05:43:10;;;;;;;4.97;0.50;;;15.30;70.90;;;;;;4732966;30;20396;-73
2023/02/19 05:45:37;;;;;;;6.35;0.40;;;15.40;70.40;;;;;;4736038;30;20060;-72
2023/02/19 05:48:04;;;;;;;7.95;0.40;;;15.50;70.50;;;;;;4748542;30;20368;-73
2023/02/19 05:50:35;;;;;;;3.90;0.40;;;15.50;70.50;;;;;;4720898;30;20457;-72
2023/02/19 05:53:02;;;;;;;6.50;1.10;;;15.60;70.50;;;;;;4748137;30;20052;-75
2023/02/19 05:55:28;;;;;;;4.88;0.45;;;15.70;70.20;;;;;;4736853;30;20129;-72
2023/02/19 05:57:55;;;;;;;11.35;1.55;;;15.60;70.40;;;;;;4737334;30;20052;-75
2023/02/19 06:00:21;;;;;;;3.35;0.32;;;15.70;70.40;;;;;;4737323;30;20342;-71
2023/02/19 06:02:46;;;;;;;7.50;0.70;;;15.70;70.40;;;;;;4721747;30;20068;-74
2023/02/19 06:05:12;;;;;;;4.88;0.22;;;15.80;70.40;;;;;;4721201;30;20132;-73
2023/02/19 06:07:40;;;;;;;4.25;0.35;;;15.80;70.20;;;;;;4736906;30;20059;-72
2023/02/19 06:10:06;;;;;;;6.32;0.63;;;15.80;70.20;;;;;;4736765;30;20058;-73
2023/02/19 06:12:32;;;;;;;8.00;0.70;;;15.80;69.90;;;;;;4721849;30;20491;-72
2023/02/19 06:14:58;;;;;;;7.93;1.13;;;15.80;70.50;;;;;;4735279;30;20049;-72
2023/02/19 06:17:24;;;;;;;12.30;1.15;;;15.90;70.60;;;;;;4719702;30;20068;-74
2023/02/19 06:19:49;;;;;;;10.05;0.88;;;15.90;70.60;;;;;;4736809;30;20052;-71
2023/02/19 06:22:15;;;;;;;10.50;0.57;;;15.90;70.70;;;;;;4736621;30;20060;-73
2023/02/19 06:24:41;;;;;;;3.65;0.30;;;15.90;69.60;;;;;;4736565;30;20052;-70
2023/02/19 06:27:08;;;;;;;8.82;0.57;;;15.90;68.40;;;;;;4735172;30;20508;-76
2023/02/19 06:29:33;;;;;;;2.97;0.35;;;15.90;68.80;;;;;;4750347;30;20405;-71
2023/02/19 06:32:00;;;;;;;4.65;0.68;;;15.90;68.20;;;;;;4736334;30;20134;-73
2023/02/19 06:34:26;;;;;;;2.65;0.70;;;15.90;68.40;;;;;;4736247;30;20040;-71
2023/02/19 06:36:51;;;;;;;7.60;0.60;;;15.90;68.70;;;;;;4736538;30;20143;-70
2023/02/19 06:39:17;;;;;;;4.75;0.57;;;16.00;69.00;;;;;;4736686;30;20463;-71
2023/02/19 06:41:43;;;;;;;9.35;0.82;;;16.00;69.30;;;;;;4736443;30;21099;-72
2023/02/19 06:44:09;;;;;;;10.13;1.02;;;16.00;69.40;;;;;;4735304;30;20078;-73
2023/02/19 06:46:35;;;;;;;5.18;0.50;;;16.00;69.40;;;;;;4735208;30;20056;-72
2023/02/19 06:49:05;;;;;;;3.65;0.45;;;15.70;64.40;;;;;;4735270;30;20045;-72
2023/02/19 06:51:31;;;;;;;4.03;0.30;;;15.40;67.00;;;;;;4735846;30;20109;-72
2023/02/19 06:54:03;;;;;;;7.38;0.85;;;15.50;69.10;;;;;;4734914;30;20060;-73
2023/02/19 06:56:32;;;;;;;2.97;0.30;;;15.60;68.80;;;;;;4737197;30;20517;-72
2023/02/19 06:59:00;;;;;;;5.72;0.50;;;15.60;67.70;;;;;;4735691;30;20052;-71
2023/02/19 07:01:28;;;;;;;2.95;0.47;;;15.60;67.20;;;;;;4736035;30;20071;-72
2023/02/19 07:03:54;;;;;;;4.72;0.30;;;15.70;67.00;;;;;;4735800;30;20515;-72
2023/02/19 07:06:22;;;;;;;5.20;0.50;;;15.80;66.90;;;;;;4735853;30;20049;-72
2023/02/19 07:08:48;;;;;;;3.35;0.28;;;15.90;66.90;;;;;;4735172;30;20075;-71
2023/02/19 07:11:14;;;;;;;2.72;0.30;;;16.00;66.70;;;;;;4749591;30;20388;-71
2023/02/19 07:13:39;;;;;;;3.25;0.17;;;16.00;66.70;;;;;;4735419;30;20067;-70
2023/02/19 07:16:07;;;;;;;2.03;0.40;;;16.00;66.70;;;;;;4736163;30;20057;-71
2023/02/19 07:18:34;;;;;;;2.72;0.20;;;16.10;66.70;;;;;;4749939;30;20060;-71
2023/02/19 07:21:09;;;;;;;1.20;0.13;;;16.10;66.70;;;;;;4735451;30;20445;-73
2023/02/19 07:23:35;;;;;;;1.92;0.15;;;16.10;66.60;;;;;;4735932;30;20087;-70
2023/02/19 07:26:01;;;;;;;4.63;0.20;;;16.20;66.70;;;;;;4739190;30;20053;-72
2023/02/19 07:28:27;;;;;;;4.10;0.32;;;16.20;66.70;;;;;;4752279;30;20095;-72
2023/02/19 07:30:58;;;;;;;2.63;0.10;;;16.20;66.60;;;;;;4738808;30;20045;-72
2023/02/19 07:33:24;;;;;;;1.27;0.10;;;16.20;66.60;;;;;;4738701;30;20053;-70
2023/02/19 07:35:50;;;;;;;2.17;0.20;;;16.20;66.60;;;;;;4738408;30;20068;-71
2023/02/19 07:38:17;;;;;;;3.50;0.45;;;16.20;66.70;;;;;;4738460;30;20060;-70
2023/02/19 07:40:57;;;;;;;3.72;0.35;;;16.20;66.60;;;;;;4738603;30;20443;-71
2023/02/19 07:43:27;;;;;;;1.98;0.10;;;16.20;66.60;;;;;;4737261;30;20114;-72
2023/02/19 07:45:53;;;;;;;2.03;0.30;;;16.10;66.60;;;;;;4738045;30;20061;-73
2023/02/19 07:48:20;;;;;;;1.02;0.10;;;16.20;66.90;;;;;;4725696;30;20084;-73
2023/02/19 07:50:53;;;;;;;2.50;0.38;;;16.10;66.70;;;;;;4738581;30;20044;-71
2023/02/19 07:53:20;;;;;;;14.15;0.82;;;16.10;64.60;;;;;;4737860;30;20049;-72
2023/02/19 07:55:45;;;;;;;6.32;0.20;;;16.10;64.20;;;;;;4738404;30;20053;-71
2023/02/19 07:58:12;;;;;;;2.03;0.22;;;16.10;64.10;;;;;;4738161;30;20436;-74
2023/02/19 08:00:38;;;;;;;4.68;0.35;;;16.10;64.10;;;;;;4737246;30;20057;-72
2023/02/19 08:03:05;;;;;;;8.25;0.40;;;16.10;64.30;;;;;;4738274;30;20060;-73
2023/02/19 08:05:37;;;;;;;2.38;0.40;;;16.10;64.30;;;;;;4739667;30;20056;-72
2023/02/19 08:08:06;;;;;;;1.25;0.10;;;16.10;64.30;;;;;;4738031;30;20389;-72
2023/02/19 08:13:19;;;;;;;;;;;16.10;64.30;;;;;;4738801;30;20049;-72
2023/02/19 08:15:51;;;;;;;4.78;0.30;;;16.00;63.80;;;;;;4752793;30;19930;-74
2023/02/19 08:18:18;;;;;;;3.97;0.25;;;16.10;64.90;;;;;;4738107;30;20048;-72
2023/02/19 08:20:44;;;;;;;5.88;0.65;;;16.10;65.10;;;;;;4738062;30;20129;-72
2023/02/19 08:23:11;;;;;;;3.20;0.47;;;16.20;65.20;;;;;;4738092;30;20121;-71
2023/02/19 08:25:37;;;;;;;5.20;0.20;;;16.20;65.20;;;;;;4737961;30;20061;-73
2023/02/19 08:28:04;;;;;;;4.10;0.32;;;16.20;65.30;;;;;;4738250;30;20048;-73
2023/02/19 08:30:31;;;;;;;2.88;0.68;;;16.30;65.40;;;;;;4738161;30;20106;-72
2023/02/19 08:32:59;;;;;;;6.07;0.50;;;16.20;65.40;;;;;;4737772;30;20455;-73
2023/02/19 08:35:25;;;;;;;4.70;0.10;;;16.30;65.50;;;;;;4738458;30;20056;-71
2023/02/19 08:37:55;;;;;;;2.08;0.13;;;16.20;65.50;;;;;;4751916;30;20101;-73
2023/02/19 08:40:21;;;;;;;2.25;0.30;;;16.30;65.60;;;;;;4737747;30;20163;-70
2023/02/19 08:42:47;;;;;;;2.47;0.28;;;16.20;65.60;;;;;;4721711;30;20148;-73
2023/02/19 08:45:12;;;;;;;5.47;0.32;;;16.20;65.70;;;;;;4737794;30;20052;-73
2023/02/19 08:47:39;;;;;;;5.30;0.32;;;16.20;65.80;;;;;;4737514;30;20048;-72
2023/02/19 08:50:06;;;;;;;3.05;0.20;;;16.20;65.90;;;;;;4737961;30;20060;-72
2023/02/19 08:52:32;;;;;;;2.40;0.20;;;16.20;66.10;;;;;;4737609;30;20055;-72
2023/02/19 08:54:58;;;;;;;3.00;0.10;;;16.20;66.40;;;;;;4737655;30;20059;-77
2023/02/19 08:57:25;;;;;;;10.85;0.93;;;16.20;66.60;;;;;;4737815;30;20052;-76
2023/02/19 08:59:51;;;;;;;3.97;0.40;;;16.20;66.70;;;;;;4737650;30;20064;-76
2023/02/19 09:02:16;;;;;;;1.90;0.20;;;16.20;66.60;;;;;;4737259;30;20131;-74
2023/02/19 09:04:42;;;;;;;5.55;0.57;;;16.20;66.30;;;;;;4737362;30;20378;-74
2023/02/19 09:07:11;;;;;;;2.22;0.30;;;16.20;66.10;;;;;;4736920;30;20052;-75
2023/02/19 09:09:37;;;;;;;5.65;0.50;;;16.20;66.10;;;;;;4751475;30;20049;-77
2023/02/19 09:12:07;;;;;;;6.22;0.43;;;16.20;66.40;;;;;;4738982;30;20060;-77
2023/02/19 09:14:34;;;;;;;12.18;1.10;;;16.20;66.40;;;;;;4737287;30;20056;-80
2023/02/19 09:17:01;;;;;;;9.15;0.77;;;16.20;67.10;;;;;;4741257;30;20058;-77
2023/02/19 09:19:27;;;;;;;6.00;0.57;;;16.20;67.40;;;;;;4754365;30;20090;-76
2023/02/19 09:21:53;;;;;;;8.43;1.17;;;16.20;68.30;;;;;;4743454;30;20136;-79
2023/02/19 09:24:20;;;;;;;10.68;1.25;;;16.20;68.10;;;;;;4754459;30;20055;-74
2023/02/19 09:26:48;;;;;;;9.38;1.30;;;16.20;68.50;;;;;;4745294;30;20131;-83
2023/02/19 09:29:14;;;;;;;10.60;2.30;;;16.20;69.10;;;;;;4749494;30;20052;-78
2023/02/19 09:31:40;;;;;;;5.05;2.25;;;16.20;69.10;;;;;;4748361;30;20094;-78
2023/02/19 09:34:06;;;;;;;10.73;1.70;;;16.20;69.50;;;;;;4734312;30;20080;-78
2023/02/19 09:36:41;;;;;;;7.32;1.75;;;16.20;68.20;;;;;;4737562;30;20124;-77
2023/02/19 09:39:09;;;;;;;5.85;1.17;;;16.00;68.40;;;;;;4744080;30;20033;-76
2023/02/19 09:41:45;;;;;;;8.02;1.20;;;16.00;68.80;;;;;;4736806;30;20064;-77
2023/02/19 09:44:15;;;;;;;7.53;1.38;;;16.00;68.70;;;;;;4746655;30;20127;-75
2023/02/19 09:46:47;;;;;;;7.22;0.77;;;16.00;68.90;;;;;;4749572;30;20434;-75
2023/02/19 09:49:17;;;;;;;8.15;1.10;;;15.90;66.70;;;;;;4737845;30;20048;-78
2023/02/19 09:51:51;;;;;;;7.38;1.20;;;15.90;68.50;;;;;;4745771;30;20442;-75
2023/02/19 09:54:24;;;;;;;9.55;1.73;;;15.90;69.20;;;;;;4742460;30;20119;-78
2023/02/19 09:56:53;;;;;;;7.82;1.08;;;15.90;69.00;;;;;;4738922;30;20132;-77
2023/02/19 09:59:23;;;;;;;8.80;0.98;;;15.90;68.90;;;;;;4744956;30;20048;-77
2023/02/19 10:01:58;;;;;;;7.00;1.38;;;16.00;69.00;;;;;;4738327;30;20122;-76
2023/02/19 10:04:24;;;;;;;7.07;0.82;;;16.00;68.80;;;;;;4753994;30;20052;-78
2023/02/19 10:06:51;;;;;;;8.57;1.45;;;16.00;68.50;;;;;;4752824;30;20060;-74
2023/02/19 10:09:22;;;;;;;9.35;1.35;;;15.90;68.50;;;;;;4749064;30;20040;-76
2023/02/19 10:11:50;;;;;;;13.85;1.52;;;16.00;68.90;;;;;;4747678;30;20385;-78
2023/02/19 10:14:22;;;;;;;8.77;1.55;;;16.00;69.00;;;;;;4753942;30;20460;-77
2023/02/19 10:16:49;;;;;;;11.07;1.30;;;16.00;69.00;;;;;;4739862;30;20095;-75
2023/02/19 10:19:15;;;;;;;6.10;1.00;;;16.00;69.00;;;;;;4736591;30;20060;-80
2023/02/19 10:21:44;;;;;;;8.73;1.15;;;16.10;69.10;;;;;;4749938;30;20560;-78
2023/02/19 10:24:19;;;;;;;10.25;1.45;;;16.10;69.10;;;;;;4736614;30;20048;-76
2023/02/19 10:26:45;;;;;;;11.38;1.35;;;16.10;69.20;;;;;;4720498;30;20052;-76
2023/02/19 10:29:11;;;;;;;11.18;1.50;;;16.10;69.40;;;;;;4742538;30;20052;-78
2023/02/19 10:31:36;;;;;;;8.75;1.23;;;16.10;70.20;;;;;;4738349;30;20053;-75
2023/02/19 10:34:03;;;;;;;6.85;1.35;;;16.10;69.50;;;;;;4738897;30;20088;-75
2023/02/19 10:36:41;;;;;;;8.85;0.90;;;16.20;69.60;;;;;;4755654;30;20118;-75
2023/02/19 10:39:20;;;;;;;5.65;1.08;;;16.20;69.80;;;;;;4720760;30;20091;-76
2023/02/19 10:41:47;;;;;;;11.13;0.82;;;16.20;69.90;;;;;;4754570;30;20060;-77
2023/02/19 10:44:14;;;;;;;11.60;1.38;;;16.20;69.90;;;;;;4753992;30;20107;-77
2023/02/19 10:46:44;;;;;;;6.15;1.02;;;16.10;70.20;;;;;;4740823;30;20063;-76
2023/02/19 10:49:27;;;;;;;8.63;1.20;;;16.10;70.40;;;;;;4749869;30;20135;-78
2023/02/19 10:51:54;;;;;;;5.97;1.30;;;16.10;70.30;;;;;;4737946;30;20088;-79
2023/02/19 10:54:30;;;;;;;5.85;0.90;;;16.10;70.00;;;;;;4722184;30;20128;-76
2023/02/19 10:57:13;;;;;;;5.68;0.70;;;16.10;69.10;;;;;;4737395;30;20388;-80
2023/02/19 10:59:48;;;;;;;9.27;1.08;;;16.10;67.60;;;;;;4729614;30;20056;-75
2023/02/19 11:02:20;;;;;;;7.78;0.90;;;16.10;67.20;;;;;;4749053;30;20103;-75
2023/02/19 11:05:03;;;;;;;8.52;1.80;;;16.10;67.10;;;;;;4752033;30;20072;-76
2023/02/19 11:07:30;;;;;;;17.60;1.95;;;16.10;66.70;;;;;;4739020;30;20112;-76
2023/02/19 11:09:57;;;;;;;11.52;1.40;;;16.00;66.60;;;;;;4739367;30;20126;-76
2023/02/19 11:12:29;;;;;;;8.02;1.45;;;16.00;65.70;;;;;;4737628;30;20483;-76
2023/02/19 11:14:55;;;;;;;7.20;0.90;;;16.00;64.10;;;;;;4739238;30;20362;-76
2023/02/19 11:17:24;;;;;;;8.77;1.10;;;16.00;63.80;;;;;;4737215;30;20058;-75
2023/02/19 11:19:54;;;;;;;7.00;1.20;;;16.10;63.90;;;;;;4743973;30;20052;-76
2023/02/19 11:22:39;;;;;;;9.60;1.13;;;16.10;64.20;;;;;;4755395;30;20048;-80
2023/02/19 11:25:24;;;;;;;8.95;1.13;;;16.10;64.90;;;;;;4752790;30;20064;-77
2023/02/19 11:28:19;;;;;;;8.05;0.95;;;16.10;64.90;;;;;;4740543;30;20060;-76
2023/02/19 11:30:48;;;;;;;7.05;0.93;;;16.10;65.40;;;;;;4746277;30;20393;-80
2023/02/19 11:33:18;;;;;;;6.72;0.80;;;16.20;65.50;;;;;;4752602;30;20053;-78
2023/02/19 11:35:46;;;;;;;6.20;0.82;;;16.20;65.50;;;;;;4738004;30;20098;-76
2023/02/19 11:38:14;;;;;;;4.20;0.73;;;16.20;65.50;;;;;;4722778;30;20084;-78
2023/02/19 11:40:43;;;;;;;8.02;0.82;;;16.20;64.60;;;;;;4738057;30;20483;-78
2023/02/19 11:43:20;;;;;;;8.20;0.90;;;16.20;63.40;;;;;;4738183;30;20052;-81
2023/02/19 11:46:27;;;;;;;11.05;1.08;;;16.20;63.20;;;;;;4737888;30;20144;-75
2023/02/19 11:49:24;;;;;;;7.90;1.00;;;16.30;63.50;;;;;;4721815;30;20065;-80
2023/02/19 11:52:10;;;;;;;8.77;0.75;;;16.20;63.70;;;;;;4737334;30;20072;-78
2023/02/19 11:54:36;;;;;;;8.32;0.95;;;16.20;64.20;;;;;;4752342;30;20064;-78
2023/02/19 11:57:26;;;;;;;5.55;0.60;;;16.20;64.50;;;;;;4737036;30;20365;-78
2023/02/19 12:00:14;;;;;;;6.43;1.05;;;16.20;64.70;;;;;;4737880;30;20071;-77
2023/02/19 12:02:57;;;;;;;6.65;1.13;;;16.20;65.00;;;;;;4738164;30;20442;-78
2023/02/19 12:05:28;;;;;;;14.57;1.13;;;16.20;65.30;;;;;;4734247;30;20045;-78
2023/02/19 12:08:43;;;;;;;9.80;0.90;;;16.20;65.50;;;;;;4738093;30;20049;-80
2023/02/19 12:11:29;;;;;;;5.78;1.05;;;16.20;65.60;;;;;;4720372;30;20068;-80
2023/02/19 12:14:19;;;;;;;8.07;0.60;;;16.20;65.70;;;;;;4737729;30;20442;-79
2023/02/19 12:17:22;;;;;;;4.35;0.98;;;16.10;65.80;;;;;;4737395;30;20060;-78
2023/02/19 12:20:16;;;;;;;4.20;0.35;;;16.20;65.90;;;;;;4734171;30;20063;-79
2023/02/19 12:23:29;;;;;;;4.05;0.70;;;16.10;66.00;;;;;;4751781;30;20430;-77
2023/02/19 12:26:41;;;;;;;4.72;0.50;;;16.10;66.20;;;;;;4735284;30;20533;-78
2023/02/19 12:29:19;;;;;;;4.35;0.50;;;16.10;66.20;;;;;;4749339;30;20056;-77
2023/02/19 12:32:14;;;;;;;5.47;0.93;;;16.10;66.30;;;;;;4738022;30;20087;-78
2023/02/19 12:35:10;;;;;;;3.65;0.40;;;16.20;66.30;;;;;;4737212;30;20126;-78
2023/02/19 12:37:59;;;;;;;2.75;0.52;;;16.10;66.90;;;;;;4732183;30;20056;-79
2023/02/19 12:40:33;;;;;;;2.08;0.25;;;16.10;66.50;;;;;;4737348;30;20621;-76
2023/02/19 12:43:21;;;;;;;3.15;0.43;;;16.10;66.60;;;;;;4751379;30;20385;-77
2023/02/19 12:45:52;;;;;;;4.13;0.77;;;16.20;66.60;;;;;;4751221;30;20176;-76
2023/02/19 12:48:30;;;;;;;8.73;0.98;;;16.10;66.70;;;;;;4735960;30;20052;-76
2023/02/19 12:51:01;;;;;;;7.50;0.40;;;16.20;66.90;;;;;;4736609;30;20044;-77
2023/02/19 12:53:41;;;;;;;5.32;0.45;;;16.10;66.80;;;;;;4735904;30;20076;-77
2023/02/19 12:56:23;;;;;;;6.38;0.70;;;16.10;63.80;;;;;;4739582;30;20087;-77
2023/02/19 12:59:07;;;;;;;5.70;0.50;;;16.10;62.30;;;;;;4722379;30;20057;-76
2023/02/19 13:01:41;;;;;;;3.53;0.50;;;16.00;63.00;;;;;;4747602;30;20114;-77
2023/02/19 13:05:01;;;;;;;3.40;0.55;;;15.90;63.30;;;;;;4737845;30;20368;-79
2023/02/19 13:07:44;;;;;;;6.20;0.57;;;15.80;63.00;;;;;;4666277;30;20065;-76
2023/02/19 13:10:10;;;;;;;3.95;0.50;;;15.70;63.20;;;;;;4730900;30;20059;-78
2023/02/19 13:12:42;;;;;;;2.15;0.52;;;15.70;60.90;;;;;;4754600;30;20505;-77
2023/02/19 13:15:14;;;;;;;4.38;0.90;;;15.70;58.80;;;;;;4731593;30;20457;-77
2023/02/19 13:17:51;;;;;;;2.47;0.50;;;15.80;58.30;;;;;;4748953;30;20056;-77
2023/02/19 13:20:28;;;;;;;2.95;0.50;;;15.90;58.60;;;;;;4750719;30;20118;-76
2023/02/19 13:26:34;;;;;;;4.25;0.80;;;16.10;59.20;;;;;;4737335;30;20056;-75
2023/02/19 13:29:44;;;;;;;4.20;0.47;;;16.20;60.30;;;;;;4747597;30;20139;-75
2023/02/19 13:32:47;;;;;;;6.18;0.73;;;16.20;60.50;;;;;;4673717;30;20067;-75
2023/02/19 13:35:41;;;;;;;2.70;0.40;;;16.30;60.40;;;;;;4745028;30;20087;-74
2023/02/19 13:38:13;;;;;;;7.85;0.90;;;16.30;59.70;;;;;;4736974;30;20060;-76
2023/02/19 13:40:41;;;;;;;7.05;0.80;;;16.10;60.60;;;;;;4753869;30;20131;-75
2023/02/19 13:43:24;;;;;;;5.85;0.60;;;16.00;60.70;;;;;;4738068;30;20131;-78
2023/02/19 13:45:59;;;;;;;4.47;0.52;;;16.00;60.30;;;;;;4737031;30;20123;-75
2023/02/19 13:48:36;;;;;;;9.68;1.23;;;16.10;60.70;;;;;;4723831;30;20056;-79
2023/02/19 13:51:18;;;;;;;11.85;1.27;;;16.00;60.90;;;;;;4725401;30;20350;-75
2023/02/19 13:53:44;;;;;;;4.68;0.88;;;16.10;61.20;;;;;;4740872;30;20052;-76
2023/02/19 13:56:34;;;;;;;6.57;1.05;;;16.10;61.60;;;;;;4750747;30;20059;-76
2023/02/19 13:59:21;;;;;;;9.00;1.42;;;16.10;61.90;;;;;;4736216;30;20064;-73
2023/02/19 14:01:52;;;;;;;13.23;1.15;;;16.20;62.30;;;;;;4736756;30;20063;-76
2023/02/19 14:04:22;;;;;;;12.10;1.88;;;16.20;62.40;;;;;;4736787;30;20088;-74
2023/02/19 14:07:03;;;;;;;14.30;2.08;;;16.20;62.60;;;;;;4733811;30;20082;-78
2023/02/19 14:09:35;;;;;;;7.55;0.80;;;16.10;62.90;;;;;;4747511;30;20468;-75
2023/02/19 14:12:24;;;;;;;11.73;1.25;;;16.20;63.20;;;;;;4738183;30;20053;-75
2023/02/19 14:14:54;;;;;;;12.43;1.42;;;16.20;63.50;;;;;;4714988;30;20139;-75
2023/02/19 14:17:40;;;;;;;12.48;1.30;;;16.20;63.80;;;;;;4740501;30;20056;-78
2023/02/19 14:20:15;;;;;;;11.35;1.98;;;16.20;64.20;;;;;;4751514;30;20060;-75
2023/02/19 14:22:44;;;;;;;15.45;1.80;;;16.20;64.30;;;;;;4750591;30;20064;-74
2023/02/19 14:25:30;;;;;;;15.43;2.05;;;16.20;64.50;;;;;;4721016;30;20067;-78
2023/02/19 14:28:29;;;;;;;10.70;1.05;;;16.20;64.70;;;;;;4736499;30;20107;-77
2023/02/19 14:31:21;;;;;;;14.70;1.85;;;16.20;65.00;;;;;;4735908;30;20377;-75
2023/02/19 14:33:52;;;;;;;11.45;2.13;;;16.20;65.50;;;;;;4711453;30;20462;-74
2023/02/19 14:36:30;;;;;;;11.75;1.58;;;16.10;65.40;;;;;;4733740;30;20068;-76
2023/02/19 14:38:59;;;;;;;10.38;1.17;;;16.20;66.00;;;;;;4737613;30;20079;-76
2023/02/19 14:41:27;;;;;;;10.82;1.40;;;16.10;66.10;;;;;;4739998;30;20064;-76
2023/02/19 14:43:57;;;;;;;11.48;1.20;;;16.10;66.40;;;;;;4740122;30;20067;-76
2023/02/19 14:46:31;;;;;;;12.68;1.42;;;16.10;66.70;;;;;;4739760;30;20064;-74
2023/02/19 14:48:59;;;;;;;;;;;16.10;67.00;;;;;;4740540;30;20068;-75
2023/02/19 14:51:38;;;;;;;13.52;1.52;;;16.10;67.00;;;;;;4739964;30;20258;-73
2023/02/19 14:54:38;;;;;;;14.00;1.52;;;16.10;66.90;;;;;;4739713;30;20048;-76
2023/02/19 14:57:10;;;;;;;10.45;1.55;;;16.10;67.40;;;;;;4739772;30;20048;-76
2023/02/19 14:59:36;;;;;;;12.25;2.10;;;16.10;67.40;;;;;;4739658;30;20491;-77
2023/02/19 15:02:14;;;;;;;9.35;1.10;;;16.00;67.50;;;;;;4739299;30;20049;-76
2023/02/19 15:04:40;;;;;;;8.88;1.20;;;16.00;68.00;;;;;;4739819;30;20487;-77
2023/02/19 15:07:09;;;;;;;20.02;2.20;;;16.00;68.00;;;;;;4726340;30;20044;-76
2023/02/19 15:09:47;;;;;;;12.15;1.25;;;16.00;68.20;;;;;;4739698;30;20060;-74
2023/02/19 15:12:22;;;;;;;13.30;1.50;;;16.00;68.40;;;;;;4739267;30;20060;-76
2023/02/19 15:14:53;;;;;;;11.52;1.60;;;16.00;68.40;;;;;;4739511;30;20080;-76
2023/02/19 15:17:29;;;;;;;12.75;1.48;;;16.00;68.20;;;;;;4740742;30;20059;-74
2023/02/19 15:19:59;;;;;;;12.55;1.00;;;16.00;68.40;;;;;;4747796;30;20056;-76
2023/02/19 15:22:27;;;;;;;15.07;1.65;;;16.10;68.50;;;;;;4748101;30;20366;-75
2023/02/19 15:24:54;;;;;;;20.10;2.72;;;16.10;68.30;;;;;;4746034;30;20063;-73
2023/02/19 15:27:22;;;;;;;15.90;2.15;;;16.20;68.20;;;;;;4739451;30;20064;-75
2023/02/19 15:29:50;;;;;;;21.17;2.25;;;16.20;68.20;;;;;;4746564;30;20087;-76
2023/02/19 15:32:21;;;;;;;18.85;2.10;;;16.20;68.20;;;;;;4745983;30;20076;-76
2023/02/19 15:35:05;;;;;;;19.42;1.77;;;16.30;68.30;;;;;;4750459;30;20061;-75
2023/02/19 15:37:33;;;;;;;;;;;16.30;68.30;;;;;;4750072;30;20114;-74
2023/02/19 15:40:04;;;;;;;17.52;1.73;;;16.30;68.40;;;;;;4735899;30;20018;-74
2023/02/19 15:42:32;;;;;;;13.73;1.95;;;16.30;68.30;;;;;;4752143;30;20136;-77
2023/02/19 15:45:05;;;;;;;17.02;2.13;;;16.40;68.30;;;;;;4723740;30;20056;-76
2023/02/19 15:47:37;;;;;;;23.45;1.73;;;16.40;68.30;;;;;;4740247;30;20084;-74
2023/02/19 15:50:11;;;;;;;17.85;2.17;;;16.30;68.30;;;;;;4739691;30;20098;-75
2023/02/19 15:52:39;;;;;;;;;;;16.40;68.00;;;;;;4752036;30;20543;-75
2023/02/19 15:55:22;;;;;;;15.05;1.35;;;16.30;67.60;;;;;;4751379;30;20017;-74
2023/02/19 15:58:00;;;;;;;9.07;1.70;;;16.40;67.90;;;;;;4738581;30;20064;-74
2023/02/19 16:00:57;;;;;;;22.65;1.52;;;16.30;68.40;;;;;;4738676;30;20056;-76
2023/02/19 16:03:28;;;;;;;13.20;1.75;;;16.30;67.70;;;;;;4719700;30;20108;-76
2023/02/19 16:06:14;;;;;;;11.27;1.42;;;16.20;67.20;;;;;;4723382;30;20064;-75
2023/02/19 16:09:03;;;;;;;17.25;2.00;;;16.30;67.70;;;;;;4740005;30;20064;-75
2023/02/19 16:11:37;;;;;;;11.30;1.65;;;16.20;67.60;;;;;;4755777;30;20105;-74
2023/02/19 16:14:23;;;;;;;16.38;1.48;;;16.20;67.50;;;;;;4738550;30;20128;-76
2023/02/19 16:17:05;;;;;;;13.07;1.70;;;16.20;66.40;;;;;;4741601;30;20110;-76
2023/02/19 16:19:41;;;;;;;13.63;1.42;;;16.20;66.00;;;;;;4755634;30;20200;-74
2023/02/19 16:22:09;;;;;;;20.73;1.40;;;16.20;66.10;;;;;;4754245;30;20055;-75
2023/02/19 16:24:43;;;;;;;11.55;1.23;;;16.20;66.20;;;;;;4744450;30;20465;-74
2023/02/19 16:27:10;;;;;;;12.57;1.30;;;16.20;66.10;;;;;;4742342;30;20048;-75
2023/02/19 16:29:37;;;;;;;7.75;1.40;;;16.20;66.10;;;;;;4739920;30;20052;-77
2023/02/19 16:32:05;;;;;;;7.93;1.15;;;16.20;66.10;;;;;;4738680;30;20056;-78
2023/02/19 16:34:33;;;;;;;9.88;1.45;;;16.20;65.90;;;;;;4738410;30;20060;-79
2023/02/19 16:37:02;;;;;;;15.40;2.03;;;16.10;65.80;;;;;;4750409;30;20121;-77
2023/02/19 16:39:28;;;;;;;9.43;1.35;;;16.10;66.00;;;;;;4737990;30;20052;-77
2023/02/19 16:42:01;;;;;;;7.18;1.50;;;16.10;66.00;;;;;;4737192;30;20052;-77
2023/02/19 16:44:26;;;;;;;12.40;1.55;;;16.10;66.10;;;;;;4736285;30;20060;-75
2023/02/19 16:46:56;;;;;;;8.82;0.90;;;16.00;66.20;;;;;;4737161;30;20091;-77
2023/02/19 16:49:23;;;;;;;9.02;1.27;;;16.00;66.30;;;;;;4737219;30;20056;-75
2023/02/19 16:51:50;;;;;;;14.55;1.42;;;16.00;66.40;;;;;;4738371;30;20415;-78
2023/02/19 16:54:16;;;;;;;8.02;0.95;;;16.00;66.40;;;;;;4724770;30;20110;-77
2023/02/19 16:56:41;;;;;;;9.95;1.52;;;16.00;66.50;;;;;;4737950;30;20060;-78
2023/02/19 16:59:07;;;;;;;8.63;0.77;;;16.00;66.50;;;;;;4737485;30;20059;-75
2023/02/19 17:01:37;;;;;;;6.35;1.33;;;15.90;66.50;;;;;;4737087;30;20049;-77
2023/02/19 17:04:08;;;;;;;12.00;1.13;;;15.90;66.60;;;;;;4737095;30;20365;-77
2023/02/19 17:06:36;;;;;;;10.40;1.25;;;15.90;66.50;;;;;;4744583;30;20052;-75
2023/02/19 17:09:03;;;;;;;9.60;2.00;;;15.90;66.60;;;;;;4739408;30;20083;-75
2023/02/19 17:11:29;;;;;;;6.75;0.88;;;15.90;66.60;;;;;;4745363;30;20048;-75
2023/02/19 17:13:55;;;;;;;6.93;1.00;;;15.90;66.60;;;;;;4750791;30;20067;-76
2023/02/19 17:16:28;;;;;;;8.15;1.48;;;15.90;66.60;;;;;;4736676;30;20056;-76
2023/02/19 17:18:54;;;;;;;;;;;15.90;66.60;;;;;;4735190;30;20130;-77
2023/02/19 17:21:23;;;;;;;4.00;0.70;;;15.80;66.60;;;;;;4741524;30;19938;-77
2023/02/19 17:23:50;;;;;;;6.32;0.95;;;15.80;66.70;;;;;;4730999;30;20480;-77
2023/02/19 17:28:56;;;;;;;5.18;0.95;;;15.90;66.60;;;;;;4822030;24;20142;-76
2023/02/19 18:31:40;;;;;;;7.13;0.77;;;15.40;58.90;;;;;;5416361;24;20066;-73
2023/02/19 18:34:16;;;;;;;5.50;0.60;;;15.40;59.90;;;;;;4788154;30;20055;-78
2023/02/19 18:36:44;;;;;;;3.13;0.43;;;15.40;60.10;;;;;;4789493;29;20446;-76
2023/02/19 18:39:10;;;;;;;4.82;0.63;;;15.40;60.20;;;;;;4789602;29;20397;-79
2023/02/19 18:41:35;;;;;;;6.93;0.40;;;15.40;60.50;;;;;;4789881;29;20139;-77
2023/02/19 18:44:01;;;;;;;8.77;0.80;;;15.50;60.80;;;;;;4787638;30;20058;-76
2023/02/19 18:46:27;;;;;;;4.72;0.60;;;15.50;61.20;;;;;;4789184;29;20450;-76
2023/02/19 18:48:53;;;;;;;3.08;0.52;;;15.40;61.30;;;;;;4789671;29;20059;-75
2023/02/19 18:51:22;;;;;;;3.50;0.60;;;15.40;61.40;;;;;;4789756;29;20047;-73
2023/02/19 18:53:48;;;;;;;8.82;0.82;;;15.40;61.60;;;;;;4789384;29;20067;-78
2023/02/19 18:56:14;;;;;;;5.65;0.70;;;15.50;61.90;;;;;;4789472;30;20062;-74
2023/02/19 18:58:40;;;;;;;5.95;0.60;;;15.40;62.00;;;;;;4789316;29;20118;-73
2023/02/19 19:01:05;;;;;;;4.65;0.65;;;15.40;63.60;;;;;;4788905;30;20146;-73
2023/02/19 19:03:31;;;;;;;2.85;0.50;;;15.40;62.80;;;;;;4789390;29;20043;-74
2023/02/19 19:05:57;;;;;;;2.50;0.47;;;15.40;62.90;;;;;;4788659;29;20047;-75
2023/02/19 19:08:23;;;;;;;2.95;0.70;;;15.40;62.80;;;;;;4789175;29;20058;-73
2023/02/19 19:10:49;;;;;;;2.38;0.40;;;15.40;62.90;;;;;;4789302;29;20043;-74
2023/02/19 19:13:14;;;;;;;1.45;0.32;;;15.30;63.10;;;;;;4789164;30;20047;-72
2023/02/19 19:15:40;;;;;;;2.90;0.20;;;15.30;63.20;;;;;;4788189;30;20094;-72
2023/02/19 19:18:07;;;;;;;3.05;0.35;;;15.30;63.30;;;;;;4789812;29;20059;-72
2023/02/19 19:20:33;;;;;;;4.38;0.80;;;15.30;63.40;;;;;;4789582;29;20058;-77
2023/02/19 19:22:59;;;;;;;2.15;0.32;;;15.30;63.60;;;;;;4788339;30;20379;-77
2023/02/19 19:25:24;;;;;;;2.58;0.25;;;15.30;63.50;;;;;;4791119;29;20070;-76
2023/02/19 19:27:55;;;;;;;3.88;0.35;;;15.30;63.40;;;;;;4791937;30;20051;-76
2023/02/19 19:30:21;;;;;;;1.00;0.20;;;15.30;63.30;;;;;;4789533;29;20058;-77
2023/02/19 19:32:48;;;;;;;3.67;0.65;;;15.30;63.20;;;;;;4792281;30;20063;-73
2023/02/19 19:35:15;;;;;;;3.42;0.70;;;15.30;63.10;;;;;;4793811;29;20474;-74
2023/02/19 19:37:41;;;;;;;3.40;0.63;;;15.30;63.10;;;;;;4791516;30;20156;-78
2023/02/19 19:40:08;;;;;;;2.28;0.55;;;15.30;63.30;;;;;;4791534;30;20103;-75
2023/02/19 19:42:34;;;;;;;4.40;0.50;;;15.30;63.40;;;;;;4791049;30;20055;-76
2023/02/19 19:44:59;;;;;;;3.30;0.30;;;15.30;63.40;;;;;;4792974;29;20058;-78
2023/02/19 19:47:25;;;;;;;1.48;0.30;;;15.30;63.60;;;;;;4791690;29;20347;-75
2023/02/19 19:49:51;;;;;;;2.70;0.30;;;15.30;63.80;;;;;;4792455;29;20086;-74
2023/02/19 19:52:17;;;;;;;2.63;0.40;;;15.30;63.70;;;;;;4791512;30;20495;-75
2023/02/19 19:54:43;;;;;;;2.30;0.30;;;15.30;63.70;;;;;;4792626;29;20525;-76
2023/02/19 19:57:09;;;;;;;1.90;0.40;;;15.30;63.90;;;;;;4791154;30;20363;-75
2023/02/19 19:59:37;;;;;;;1.38;0.20;;;15.20;64.10;;;;;;4791918;29;20630;-74
2023/02/19 20:02:04;;;;;;;1.42;0.40;;;15.30;64.30;;;;;;4791921;29;20059;-76